Latest Weather Observations for Proserpine

IDQ60801

Issued at 8:32 pm EST Monday 30 May 2016 (issued every 30 minutes, with the page automatically refreshed every 10 minutes)

About weather observations | Map of weather stations | Latest weather observations for QLD | Other Formats
Station Details ID: 033247 Name: PROSERPINE AIRPORT Lat: -20.49 Lon: 148.56 Height: 19.7 m
Data from the previous 72 hours. | See also: Recent months at Proserpine
Date/Time
EST
Temp
°C
App
Temp
°C
Dew
Point
Rel
Hum
%
Delta-T
°C
Wind Press
QNH
hPa
Press
MSL
hPa
Rain
since 9 am
mm
Dir
 
Spd
km/h
Gust
km/h
Spd
kts
Gust
kts
30/08:30pm 23.3 23.8 19.2 78 2.6 ESE 15 20 8 11 1020.5 1020.4 0.0
30/08:00pm 23.2 23.3 19.2 78 2.5 SE 17 20 9 11 1020.3 1020.2 0.0
30/07:30pm 23.2 24.2 19.4 79 2.4 ESE 13 17 7 9 1020.2 1020.1 0.0
30/07:00pm 23.2 24.7 19.8 81 2.2 ESE 11 15 6 8 1020.0 1019.9 0.0
30/06:30pm 22.9 24.4 19.7 82 2.1 ESE 11 13 6 7 1019.8 1019.7 0.0
30/06:00pm 23.2 24.6 19.6 80 2.3 ESE 11 13 6 7 1019.6 1019.5 0.0
30/05:30pm 23.5 24.1 19.4 78 2.6 ESE 15 20 8 11 1019.0 1018.9 0.0
30/05:00pm 23.9 24.1 19.4 76 2.9 ESE 17 26 9 14 1018.9 1018.8 0.0
30/04:30pm 24.3 24.0 19.6 75 3.0 ESE 20 28 11 15 1018.6 1018.5 0.0
30/04:00pm 24.5 24.2 19.6 74 3.1 ESE 20 28 11 15 1018.4 1018.3 0.0
30/03:30pm 25.1 25.4 19.7 72 3.5 ESE 17 24 9 13 1018.3 1018.2 0.0
30/03:00pm 25.4 25.1 19.1 68 4.0 ESE 19 24 10 13 1018.0 1017.9 0.0
30/02:30pm 26.2 26.3 19.1 65 4.6 ESE 17 24 9 13 1017.9 1017.8 0.0
30/02:00pm 26.1 26.0 19.5 67 4.3 ESE 19 26 10 14 1018.3 1018.2 0.0
30/01:30pm 26.3 26.3 19.7 67 4.3 ESE 19 28 10 15 1018.5 1018.4 0.0
30/01:00pm 25.7 25.3 19.3 67 4.1 ESE 20 30 11 16 1018.8 1018.7 0.0
30/12:30pm 26.0 25.4 18.9 65 4.5 ESE 20 28 11 15 1019.3 1019.2 0.0
30/12:00pm 26.2 25.8 18.9 64 4.7 ESE 19 28 10 15 1019.8 1019.7 0.0
30/11:30am 26.1 25.4 19.5 67 4.3 SE 22 28 12 15 1020.1 1020.0 0.0
30/11:00am 26.6 26.2 19.0 63 4.9 ESE 19 28 10 15 1020.4 1020.3 0.0
30/10:30am 26.4 26.8 19.8 67 4.3 ESE 17 24 9 13 1020.5 1020.4 0.0
30/10:00am 25.8 26.2 19.9 70 3.8 ESE 17 22 9 12 1020.6 1020.5 0.0
30/09:30am 25.1 26.4 20.1 74 3.2 SE 13 17 7 9 1020.7 1020.6 0.0
30/09:00am 23.3 25.3 19.9 81 2.2 SSE 9 13 5 7 1020.5 1020.4 0.0
30/08:30am 21.0 23.1 19.3 90 1.1 SSW 7 9 4 5 1020.4 1020.3 0.0
30/08:00am 19.6 21.3 18.4 93 0.7 SSW 7 9 4 5 1020.2 1020.1 0.0
30/07:30am 18.9 21.8 18.1 95 0.5 CALM 0 6 0 3 1019.8 1019.7 0.0
30/07:00am 17.7 20.1 16.9 95 0.5 CALM 0 0 0 0 1019.4 1019.3 0.0
30/06:30am 17.7 18.9 16.9 95 0.5 SW 6 7 3 4 1019.0 1018.9 0.0
30/06:00am 17.7 18.9 16.9 95 0.5 SW 6 9 3 5 1018.8 1018.7 0.0
30/05:30am 17.7 18.8 16.7 94 0.6 WSW 6 7 3 4 1018.6 1018.5 0.0
30/05:00am 18.1 19.2 17.0 93 0.7 SW 7 9 4 5 1018.5 1018.4 0.0
30/04:30am 18.3 20.4 17.1 93 0.7 SW 2 9 1 5 1018.4 1018.3 0.0
30/04:00am 18.2 20.7 17.2 94 0.6 CALM 0 0 0 0 1018.3 1018.2 0.0
30/03:30am 18.0 20.4 16.9 93 0.7 CALM 0 0 0 0 1018.4 1018.3 0.0
30/03:00am 18.2 20.6 16.9 92 0.8 CALM 0 0 0 0 1018.3 1018.2 0.0
30/02:30am 18.5 20.9 17.0 91 0.9 CALM 0 0 0 0 1018.5 1018.4 0.0
30/02:00am 18.6 21.0 17.1 91 0.9 CALM 0 0 0 0 1018.5 1018.4 0.0
30/01:30am 18.4 20.7 16.7 90 1.0 CALM 0 0 0 0 1018.6 1018.5 0.0
30/01:00am 18.3 20.1 16.5 89 1.1 SSW 2 6 1 3 1018.8 1018.7 0.0
30/12:30am 18.5 19.4 16.7 89 1.1 S 7 9 4 5 1018.7 1018.6 0.0
30/12:00am 18.4 18.5 16.6 89 1.1 SSW 11 13 6 7 1018.6 1018.5 0.0
 
Date/Time
EST
Temp
°C
App
Temp
°C
Dew
Point
Rel
Hum
%
Delta-T
°C
Wind Press
QNH
hPa
Press
MSL
hPa
Rain
since 9 am
mm
Dir
 
Spd
km/h
Gust
km/h
Spd
kts
Gust
kts
29/11:30pm 18.7 19.3 16.9 89 1.1 SSW 9 13 5 7 1018.9 1018.8 0.0
29/11:00pm 18.7 19.0 16.9 89 1.1 SSW 11 15 6 8 1019.1 1019.0 0.0
29/10:30pm 19.2 19.2 17.2 88 1.2 SSW 13 15 7 8 1019.3 1019.2 0.0
29/10:00pm 19.2 19.7 17.5 90 1.0 SSW 11 13 6 7 1019.4 1019.3 0.0
29/09:38pm 19.8 21.2 17.8 88 1.2 SW 7 9 4 5 1019.2 1019.1 0.0
29/09:30pm 19.9 21.0 18.0 89 1.2 SSW 9 11 5 6 1019.2 1019.1 0.0
29/09:28pm 19.9 21.0 18.0 89 1.2 SSW 9 11 5 6 1019.3 1019.2 0.0
29/09:00pm 19.5 19.8 18.0 91 0.9 SSW 13 15 7 8 1019.1 1019.0 0.0
29/08:30pm 19.0 19.8 17.3 90 1.0 SSW 9 11 5 6 1019.0 1018.9 0.0
29/08:00pm 19.4 20.2 17.4 88 1.2 SSW 9 11 5 6 1018.9 1018.8 0.0
29/07:30pm 19.8 21.0 17.4 86 1.5 SSW 7 7 4 4 1018.7 1018.6 0.0
29/07:00pm 20.3 21.8 17.5 84 1.7 S 6 7 3 4 1018.4 1018.3 0.0
29/06:30pm 21.0 22.5 18.0 83 1.9 SSE 7 9 4 5 1018.0 1017.9 0.0
29/06:00pm 21.3 22.3 17.7 80 2.2 SE 9 11 5 6 1017.5 1017.5 0.0
29/05:30pm 22.5 22.7 17.6 74 3.0 ESE 13 17 7 9 1017.0 1017.0 0.0
29/05:00pm 23.6 23.2 17.1 67 4.0 ESE 15 22 8 12 1016.8 1016.8 0.0
29/04:30pm 24.5 23.3 16.2 60 5.1 E 17 24 9 13 1016.6 1016.6 0.0
29/04:00pm 25.2 23.9 15.8 56 5.7 ESE 17 22 9 12 1016.4 1016.4 0.0
29/03:30pm 26.0 24.4 16.0 54 6.1 E 19 26 10 14 1016.1 1016.1 0.0
29/03:00pm 25.9 23.8 14.7 50 6.7 ESE 19 26 10 14 1016.0 1016.0 0.0
29/02:30pm 26.3 23.8 14.1 47 7.3 ESE 20 26 11 14 1015.8 1015.8 0.0
29/02:00pm 26.6 24.0 13.3 43 7.8 ESE 19 26 10 14 1015.9 1015.9 0.0
29/01:30pm 27.2 24.0 12.0 38 8.8 SE 20 30 11 16 1016.0 1016.0 0.0
29/01:00pm 26.4 23.0 11.3 39 8.6 ESE 20 30 11 16 1016.3 1016.3 0.0
29/12:30pm 26.4 23.1 11.7 40 8.4 ESE 20 30 11 16 1016.8 1016.8 0.0
29/12:00pm 26.6 23.4 11.9 40 8.4 SE 20 28 11 15 1017.3 1017.3 0.0
29/11:30am 25.8 21.8 9.2 35 9.1 ESE 20 30 11 16 1017.6 1017.6 0.0
29/11:00am 25.5 21.7 9.7 37 8.7 ESE 20 30 11 16 1017.9 1017.8 0.0
29/10:30am 26.0 22.3 9.4 35 9.1 ESE 19 30 10 16 1018.3 1018.2 0.0
29/10:00am 25.8 22.2 8.3 33 9.4 SE 17 28 9 15 1018.6 1018.5 0.0
29/09:30am 25.0 23.1 10.5 40 8.1 SSE 11 15 6 8 1018.9 1018.8 0.0
29/09:00am 23.5 23.0 13.9 55 5.6 S 9 13 5 7 1018.7 1018.6 0.0
29/08:30am 21.4 21.3 15.9 71 3.3 S 11 13 6 7 1018.4 1018.3 0.0
29/08:00am 19.1 20.0 16.5 85 1.6 S 7 13 4 7 1018.0 1017.9 0.0
29/07:30am 17.1 19.2 16.3 95 0.5 CALM 0 0 0 0 1017.6 1017.6 0.0
29/07:00am 15.5 17.0 14.7 95 0.5 CALM 0 0 0 0 1017.4 1017.4 0.0
29/06:30am 15.5 16.6 14.7 95 0.5 WSW 2 6 1 3 1017.1 1017.1 0.0
29/06:00am 16.1 16.7 15.3 95 0.5 SSE 6 6 3 3 1016.7 1016.7 0.0
29/05:30am 16.5 17.2 15.5 94 0.6 S 6 7 3 4 1016.1 1016.1 0.0
29/05:00am 16.7 17.3 15.9 95 0.5 S 7 9 4 5 1015.8 1015.8 0.0
29/04:30am 16.6 17.3 16.0 96 0.4 S 7 9 4 5 1015.6 1015.6 0.0
29/04:00am 16.7 16.9 15.7 94 0.6 SSW 9 9 5 5 1015.2 1015.2 0.0
29/03:30am 16.9 18.9 15.9 94 0.6 CALM 0 0 0 0 1015.1 1015.1 0.0
29/03:00am 17.5 18.5 16.4 93 0.7 SW 6 7 3 4 1015.0 1015.0 0.0
29/02:30am 17.7 18.8 16.7 94 0.6 SSW 6 7 3 4 1015.2 1015.2 0.0
29/02:00am 17.7 18.3 16.7 94 0.6 SSW 9 11 5 6 1015.2 1015.2 0.0
29/01:30am 17.9 18.8 16.6 92 0.8 SSW 7 9 4 5 1015.4 1015.4 0.0
29/01:00am 18.3 19.6 17.0 92 0.8 SW 6 7 3 4 1015.4 1015.4 0.0
29/12:30am 18.5 19.8 17.0 91 0.9 SSW 6 7 3 4 1015.5 1015.5 0.0
29/12:00am 18.5 19.7 16.8 90 1.0 SSW 6 9 3 5 1015.6 1015.6 0.0
 
Date/Time
EST
Temp
°C
App
Temp
°C
Dew
Point
Rel
Hum
%
Delta-T
°C
Wind Press
QNH
hPa
Press
MSL
hPa
Rain
since 9 am
mm
Dir
 
Spd
km/h
Gust
km/h
Spd
kts
Gust
kts
28/11:30pm 19.1 20.5 17.4 90 1.0 SSW 6 9 3 5 1015.9 1015.9 0.0
28/11:00pm 19.3 21.6 17.6 90 1.0 SW 2 6 1 3 1016.0 1016.0 0.0
28/10:30pm 19.5 22.1 17.6 89 1.2 CALM 0 6 0 3 1016.0 1016.0 0.0
28/10:00pm 19.6 20.4 17.4 87 1.3 SSW 9 11 5 6 1015.9 1015.9 0.0
28/09:30pm 20.1 22.9 17.9 87 1.4 CALM 0 0 0 0 1015.9 1015.9 0.0
28/09:00pm 20.1 21.2 17.9 87 1.4 SSW 9 11 5 6 1015.8 1015.8 0.0
28/08:30pm 20.4 21.1 18.0 86 1.5 SSW 11 13 6 7 1015.7 1015.7 0.0
28/08:00pm 21.1 22.7 17.9 82 2.0 SSW 6 7 3 4 1015.4 1015.4 0.0
28/07:30pm 21.2 22.7 18.0 82 2.0 SW 7 9 4 5 1015.2 1015.2 0.0
28/07:00pm 21.5 22.4 18.3 82 2.0 SSW 11 11 6 6 1014.8 1014.8 0.0
28/06:30pm 22.3 23.9 18.3 78 2.5 S 7 7 4 4 1014.4 1014.4 0.0
28/06:00pm 23.1 24.7 18.2 74 3.1 SSE 7 9 4 5 1014.0 1014.0 0.0
28/05:30pm 24.3 25.2 18.5 70 3.7 SSE 11 15 6 8 1013.6 1013.6 0.0
28/05:00pm 25.7 26.2 18.4 64 4.6 SE 13 17 7 9 1013.3 1013.3 0.0
28/04:30pm 26.7 26.0 18.3 60 5.3 SE 19 24 10 13 1012.9 1012.9 0.0
28/04:00pm 27.2 26.3 18.2 58 5.7 SE 20 26 11 14 1012.8 1012.8 0.0
28/03:30pm 28.7 28.5 18.5 54 6.5 ESE 17 20 9 11 1012.5 1012.5 0.0
28/03:00pm 29.3 30.6 18.4 51 7.0 E 9 22 5 12 1012.5 1012.5 0.0
28/02:30pm 29.7 30.9 18.2 50 7.4 ENE 9 15 5 8 1012.7 1012.7 0.0
28/02:00pm 29.8 31.3 17.6 48 7.8 NNE 6 13 3 7 1012.9 1012.9 0.0
28/01:30pm 29.4 31.2 18.2 51 7.2 NNE 6 13 3 7 1013.2 1013.2 0.0
28/01:00pm 28.7 29.8 17.9 52 6.9 NE 9 13 5 7 1013.6 1013.6 0.0
28/12:30pm 28.5 29.3 17.4 51 7.0 NNE 9 13 5 7 1014.0 1014.0 0.0
28/12:00pm 28.6 29.3 16.2 47 7.7 E 7 17 4 9 1014.4 1014.4 0.0
28/11:30am 29.0 30.4 17.8 50 7.1 ENE 7 13 4 7 1014.9 1014.9 0.0
28/11:00am 27.9 28.5 15.9 48 7.4 ENE 7 15 4 8 1015.1 1015.1 0.0
28/10:30am 27.1 28.6 17.6 56 6.0 ENE 6 11 3 6 1015.5 1015.5 0.0
28/10:00am 25.6 26.2 15.9 55 5.9 E 7 11 4 6 1016.0 1016.0 0.0
28/09:30am 25.2 26.8 18.2 65 4.4 SE 7 11 4 6 1016.3 1016.3 0.0
28/09:00am 23.6 26.7 19.5 78 2.6 SSW 2 9 1 5 1016.3 1016.3 0.0
28/08:30am 22.2 25.4 18.8 81 2.1 CALM 0 0 0 0 1015.9 1015.9 0.0
28/08:00am 21.5 24.4 18.3 82 2.0 CALM 0 0 0 0 1015.7 1015.7 0.0
28/07:30am 20.8 24.1 19.1 90 1.1 CALM 0 0 0 0 1015.6 1015.6 0.0
28/07:00am 20.0 23.0 19.3 96 0.4 WNW 2 6 1 3 1015.2 1015.2 0.0
28/06:30am 19.2 22.2 18.5 96 0.4 CALM 0 2 0 1 1014.9 1014.9 0.0
28/06:00am 19.3 22.2 18.3 94 0.6 CALM 0 6 0 3 1014.7 1014.7 0.0
28/05:30am 19.7 21.5 18.4 92 0.8 S 6 7 3 4 1014.3 1014.3 0.0
28/05:00am 20.4 23.6 18.9 91 0.9 CALM 0 6 0 3 1013.9 1013.9 0.0
28/04:30am 20.9 23.4 20.2 96 0.4 ESE 7 9 4 5 1013.6 1013.6 0.0
28/04:00am 21.3 24.1 20.8 97 0.3 ESE 7 9 4 5 1013.3 1013.3 0.0
28/03:30am 21.6 25.0 20.9 96 0.5 ENE 4 7 2 4 1013.0 1013.0 0.0
28/03:00am 22.0 24.3 21.3 96 0.5 SE 11 13 6 7 1012.8 1012.8 0.0
28/02:30am 22.4 24.5 21.7 96 0.5 SE 13 20 7 11 1012.5 1012.5 0.0
28/02:00am 22.4 24.9 21.7 96 0.5 N 11 13 6 7 1012.1 1012.1 0.0
28/01:30am 22.3 25.6 21.5 95 0.5 NW 6 9 3 5 1012.4 1012.4 0.0
28/01:00am 22.6 25.9 21.8 95 0.5 WSW 7 11 4 6 1012.8 1012.8 0.0
28/12:30am 23.0 26.1 22.2 95 0.5 NNW 9 13 5 7 1012.3 1012.3 0.0
28/12:00am 23.1 26.3 22.3 95 0.5 N 9 13 5 7 1012.2 1012.2 0.0
 
Date/Time
EST
Temp
°C
App
Temp
°C
Dew
Point
Rel
Hum
%
Delta-T
°C
Wind Press
QNH
hPa
Press
MSL
hPa
Rain
since 9 am
mm
Dir
 
Spd
km/h
Gust
km/h
Spd
kts
Gust
kts
27/11:30pm 23.5 26.5 22.7 95 0.5 NNW 11 15 6 8 1012.4 1012.4 0.0
27/11:00pm 23.7 26.4 22.9 95 0.5 NNW 13 17 7 9 1012.5 1012.5 0.0
27/10:30pm 23.8 26.6 23.0 95 0.5 NNW 13 17 7 9 1012.4 1012.4 0.0
27/10:00pm 23.8 26.2 23.0 95 0.5 NNW 15 20 8 11 1012.4 1012.4 0.0
27/09:30pm 23.9 26.7 23.0 95 0.6 NNW 13 19 7 10 1012.5 1012.5 0.0
27/09:00pm 24.1 27.0 23.1 94 0.7 NNW 13 17 7 9 1012.5 1012.5 0.0

Other Formats:

Comma delimited format used in spreadsheet applications
http://www.bom.gov.au/fwo/IDQ60801/IDQ60801.94365.axf

JavaScript Object Notation format (JSON) in row-major order
http://www.bom.gov.au/fwo/IDQ60801/IDQ60801.94365.json